Data for 07/02/2018

Time Sea-Level Adjusted Pressure Absolute Pressure Temperature Relative Humidity Dew Point   
(mb) (inHg) (mb) (inHg) (C) (F) (%) (C) (F)
00:05 1018 30.06 847 25.01 13.5 56.3 59 5.8 42.4
00:10 1018 30.06 847 25.01 13.2 55.7 58 5 41.1
00:15 1018 30.06 847 25.01 13.3 56 58 5.2 41.3
00:20 1018 30.06 847 25.01 13.4 56.2 58 5.4 41.7
00:25 1018 30.06 847 25.01 13.3 56 60 5.7 42.2
00:30 1018 30.06 848 25.04 13 55.4 61 5.7 42.2
00:35 1018 30.06 848 25.04 12.6 54.8 61 5.3 41.6
00:40 1018 30.06 848 25.04 12.5 54.5 62 5.5 41.8
00:45 1018 30.06 848 25.04 12.3 54.2 63 5.5 41.9
00:50 1018 30.06 848 25.04 12.2 53.9 64 5.6 42.2
00:55 1018 30.06 847 25.01 12.2 53.9 62 5.2 41.4
01:00 1018 30.06 848 25.04 12.3 54.2 60 4.8 40.6
01:05 1018 30.06 848 25.04 12.6 54.7 58 4.7 40.5
01:10 1018 30.06 848 25.04 12.6 54.6 56 4.1 39.4
01:15 1018 30.06 848 25.04 12.7 54.8 55 3.9 39
01:20 1018 30.06 848 25.04 12.8 55.1 56 4.3 39.8
01:25 1018 30.06 848 25.04 12.6 54.6 58 4.7 40.4
01:30 1018 30.06 848 25.04 12.1 53.8 59 4.4 39.9
01:35 1018 30.06 848 25.04 12 53.5 59 4.3 39.7
01:40 1018 30.06 848 25.04 12.2 53.9 57 4 39.2
01:45 1018 30.06 848 25.04 12.2 54 58 4.2 39.6
01:50 1018 30.06 848 25.04 12 53.6 58 4 39.2
01:55 1018 30.06 848 25.04 12 53.6 57 3.9 39
02:00 1018 30.06 848 25.04 11.8 53.3 59 4.1 39.5
02:05 1018 30.06 848 25.04 11.7 53 58 3.8 38.9
02:10 1018 30.06 848 25.04 11.7 53 58 3.8 38.9
02:15 1018 30.06 848 25.04 11.6 52.9 58 3.8 38.8
02:20 1018 30.06 848 25.04 11.6 53 58 3.7 38.6
02:25 1018 30.06 848 25.04 11.7 53.1 57 3.5 38.2
02:30 1018 30.06 848 25.04 11.7 53.1 58 3.7 38.6
02:35 1018 30.06 848 25.04 11.6 52.9 59 3.9 39.1
02:40 1018 30.06 848 25.04 11.4 52.6 59 3.7 38.7
02:45 1018 30.06 848 25.04 11.3 52.4 59 3.7 38.7
02:50 1018 30.06 848 25.04 11.1 52.1 61 3.9 39
02:55 1018 30.06 848 25.04 10.6 51 66 4.5 40.2
03:00 1018 30.06 848 25.04 10 49.9 67 4.2 39.6
03:05 1018 30.06 848 25.04 9.8 49.6 68 4.2 39.6
03:10 1018 30.06 848 25.04 9.6 49.3 68 4.1 39.3
03:15 1018 30.06 848 25.04 9.6 49.3 68 4 39.1
03:20 1018 30.06 848 25.04 9.7 49.5 68 4 39.2
03:25 1018 30.06 848 25.04 9.6 49.4 68 4 39.1
03:30 1018 30.06 848 25.04 9.7 49.4 68 4 39.2
03:35 1018 30.06 848 25.04 9.6 49.3 67 3.9 38.9
03:40 1018 30.06 847 25.01 9.6 49.2 68 3.9 39
03:45 1018 30.06 848 25.04 9.5 49 68 3.8 38.9
03:50 1018 30.06 848 25.04 9.5 49.1 67 3.8 38.8
03:55 1018 30.06 848 25.04 9.5 49.1 67 3.8 38.8
04:00 1018 30.06 848 25.04 9.4 48.9 68 3.8 38.8
04:05 1018 30.06 848 25.04 9.3 48.8 68 3.7 38.7
04:10 1018 30.06 848 25.04 9.3 48.7 68 3.7 38.6
04:15 1018 30.06 848 25.04 9.2 48.6 68 3.6 38.5
04:20 1018 30.06 848 25.04 9.2 48.5 66 3.2 37.8
04:25 1018 30.06 848 25.04 9.5 49.1 63 2.8 37.1
04:30 1018 30.06 848 25.04 9.8 49.6 63 3 37.5
04:35 1018 30.06 848 25.04 9.8 49.6 63 3 37.5
04:40 1018 30.06 848 25.04 9.6 49.3 63 2.9 37.3
04:45 1018 30.06 848 25.04 9.4 48.8 63 2.8 37
04:50 1018 30.06 848 25.04 9.2 48.6 63 2.5 36.6
04:55 1018 30.06 847 25.01 9.5 49 60 2.2 35.9
05:00 1018 30.06 847 25.01 9.7 49.4 59 2.2 35.9
05:05 1018 30.06 847 25.01 9.7 49.4 60 2.3 36.1
05:10 1018 30.06 847 25.01 9.6 49.3 59 2.1 35.8
05:15 1018 30.06 847 25.01 9.6 49.3 60 2.2 36
05:20 1018 30.06 847 25.01 9.4 49 60 2.2 35.9
05:25 1018 30.06 847 25.01 9.4 48.9 61 2.3 36.2
05:30 1018 30.06 847 25.01 9.2 48.5 63 2.4 36.4
05:35 1018 30.06 847 25.01 9 48.2 64 2.6 36.6
05:40 1018 30.06 847 25.01 9 48.1 64 2.5 36.4
05:45 1018 30.06 847 25.01 8.9 48 64 2.4 36.3
05:50 1018 30.06 847 25.01 8.8 47.9 62 1.9 35.4
05:55 1018 30.06 847 25.01 9 48.3 62 2.2 36
06:00 1018 30.06 847 25.01 8.9 48 63 2.3 36.2
06:05 1018 30.06 847 25.01 8.9 48 62 2 35.6
06:10 1018 30.06 847 25.01 9 48.2 61 2 35.5
06:15 1018 30.06 847 25.01 9.2 48.5 60 1.9 35.4
06:20 1018 30.06 847 25.01 9.4 49 59 2 35.6
06:25 1018 30.06 847 25.01 9.4 49 60 2.1 35.7
06:30 1018 30.06 847 25.01 9.5 49.1 60 2.1 35.8
06:35 1018 30.06 847 25.01 9.7 49.5 60 2.3 36.1
06:40 1018 30.06 847 25.01 9.8 49.6 61 2.6 36.8
06:45 1018 30.06 847 25.01 9.8 49.7 61 2.7 36.9
06:50 1018 30.06 847 25.01 10.1 50.2 60 2.6 36.8
06:55 1018 30.06 847 25.01 10.3 50.6 60 2.9 37.2
07:00 1018 30.06 847 25.01 10.5 50.8 59 2.9 37.2
07:05 1018 30.06 847 25.01 10.7 51.3 58 2.8 37
07:10 1018 30.06 847 25.01 10.9 51.7 59 3.2 37.8
07:15 1018 30.06 847 25.01 11.1 52 58 3.2 37.7
07:20 1018 30.06 847 25.01 11.1 52 58 3.2 37.7
07:25 1018 30.06 847 25.01 11.4 52.5 58 3.4 38.1
07:30 1018 30.06 847 25.01 11.4 52.4 57 3.2 37.8
07:35 1018 30.06 847 25.01 11.5 52.7 56 3.2 37.8
07:40 1018 30.06 847 25.01 12.2 53.9 53 3 37.4
07:45 1018 30.06 847 25.01 12.8 55 52 3.2 37.8
07:50 1018 30.06 847 25.01 12.8 55.1 52 3.4 38.1
07:55 1018 30.06 847 25.01 13.1 55.5 51 3.1 37.7
08:00 1018 30.06 847 25.01 13.9 57 49 3.4 38.1
08:05 1018 30.06 847 25.01 14.5 58 47 3.5 38.2
08:10 1018 30.06 847 25.01 15.2 59.4 46 3.9 39
08:15 1018 30.06 847 25.01 14.7 58.5 48 4 39.2
08:20 1018 30.06 847 25.01 14.1 57.4 50 3.8 38.8
08:25 1018 30.06 847 25.01 14.4 57.8 48 3.7 38.6
08:30 1017 30.03 847 25.01 14.4 57.8 50 4 39.2
08:35 1017 30.03 847 25.01 14.7 58.5 46 3.2 37.8
08:40 1017 30.03 847 25.01 14.9 58.8 47 3.6 38.5
08:45 1017 30.03 847 25.01 14.6 58.3 47 3.5 38.2
08:50 1017 30.03 847 25.01 14.7 58.5 43 2.5 36.5
08:55 1017 30.03 847 25.01 15.2 59.4 38 1.2 34.1
09:00 1017 30.03 847 25.01 15.4 59.7 41 2.3 36.1
09:05 1017 30.03 847 25.01 15.7 60.2 40 2.1 35.7
09:10 1017 30.03 846 24.98 15.8 60.4 39 1.8 35.3
09:15 1017 30.03 846 24.98 15.6 60 41 2.5 36.5
09:20 1017 30.03 846 24.98 15.5 59.9 43 3 37.5
09:25 1017 30.03 846 24.98 15.7 60.2 43 3.4 38.1
09:30 1017 30.03 846 24.98 16.3 61.3 41 3.2 37.7
09:35 1017 30.03 846 24.98 16.9 62.4 41 3.6 38.5
09:40 1017 30.03 846 24.98 16.9 62.5 40 3.4 38.1
09:45 1017 30.03 846 24.98 16.6 62 41 3.4 38.2
09:50 1017 30.03 846 24.98 16.2 61.2 38 2.1 35.7
09:55 1017 30.03 846 24.98 16.1 61 39 2.3 36.2
10:00 1017 30.03 846 24.98 17 62.6 38 2.9 37.2
10:05 1017 30.03 846 24.98 17.6 63.6 37 2.8 37.1
10:10 1017 30.03 846 24.98 17.3 63.1 40 3.7 38.7
10:15 1017 30.03 846 24.98 17 62.6 39 3.2 37.8
10:20 1017 30.03 846 24.98 17.5 63.4 38 3.1 37.6
10:25 1017 30.03 846 24.98 17.6 63.8 37 2.7 36.9
10:30 1017 30.03 846 24.98 18.2 64.8 35 2.7 36.8
10:35 1017 30.03 846 24.98 19 66.2 31 1.7 35
10:40 1016 30 846 24.98 19.5 67 33 2.8 37
10:45 1016 30 846 24.98 18 64.4 38 3.5 38.4
10:50 1016 30 846 24.98 18.1 64.7 36 3.1 37.6
10:55 1016 30 846 24.98 18.6 65.4 36 3.4 38.1
11:00 1016 30 846 24.98 19.1 66.4 35 3.6 38.5
11:05 1016 30 846 24.98 19.4 66.9 33 2.9 37.2
11:10 1016 30 846 24.98 19.9 67.7 34 3.7 38.6
11:15 1016 30 846 24.98 19.7 67.5 35 4 39.2
11:20 1016 30 846 24.98 19.2 66.5 37 4.4 39.9
11:25 1016 30 845 24.95 18.6 65.5 37 3.9 39
11:30 1016 30 845 24.95 18.7 65.6 36 3.3 37.9
11:35 1016 30 845 24.95 19.6 67.3 34 3.5 38.3
11:40 1016 30 845 24.95 20.1 68.2 31 2.6 36.7
11:45 1016 30 845 24.95 19.5 67.1 33 2.8 37.1
11:50 1016 30 845 24.95 19.8 67.7 32 3 37.3
11:55 1016 30 845 24.95 20.7 69.2 31 3 37.4
12:00 1016 30 845 24.95 20.8 69.4 32 3.5 38.2
12:05 1016 30 845 24.95 19.9 67.9 33 3.5 38.4
12:10 1016 30 845 24.95 20.1 68.2 33 3.4 38.2
12:15 1016 30 845 24.95 20.2 68.4 33 3.5 38.4
12:20 1016 30 845 24.95 20.4 68.7 33 3.7 38.7
12:25 1016 30 845 24.95 20.2 68.3 33 3.4 38.1
12:30 1016 30 845 24.95 21.2 70.1 31 3.6 38.5
12:35 1016 30 845 24.95 21.2 70.1 33 4.6 40.3
12:40 1016 30 845 24.95 21.1 69.9 31 3.4 38.2
12:45 1016 30 845 24.95 21.8 71.2 30 3.8 38.8
12:50 1015 29.97 845 24.95 21.5 70.7 31 3.9 39.1
12:55 1015 29.97 845 24.95 21.3 70.4 31 3.8 38.9
13:00 1015 29.97 845 24.95 21.9 71.3 32 4.6 40.2
13:05 1015 29.97 845 24.95 21.4 70.6 32 4.2 39.6
13:10 1015 29.97 844 24.92 21.6 70.9 31 3.8 38.8
13:15 1015 29.97 844 24.92 22.1 71.8 29 3.3 37.9
13:20 1015 29.97 844 24.92 21.5 70.7 30 3.2 37.8
13:25 1015 29.97 844 24.92 22.1 71.8 30 4 39.2
13:30 1015 29.97 844 24.92 22.5 72.5 29 3.7 38.7
13:35 1015 29.97 844 24.92 22.7 72.9 30 4.3 39.8
13:40 1015 29.97 844 24.92 22.6 72.8 29 3.7 38.6
13:45 1015 29.97 844 24.92 22.9 73.2 30 4.7 40.5
13:50 1015 29.97 844 24.92 22.2 72 30 3.9 39.1
13:55 1015 29.97 844 24.92 22 71.6 31 4.2 39.5
14:00 1015 29.97 844 24.92 22.6 72.7 30 4.3 39.8
14:05 1014 29.94 844 24.92 23.2 73.7 30 4.7 40.5
14:10 1014 29.94 844 24.92 22.8 73 30 4.6 40.2
14:15 1014 29.94 844 24.92 22.8 73 29 4.3 39.7
14:20 1014 29.94 844 24.92 23.1 73.7 30 4.7 40.4
14:25 1014 29.94 844 24.92 23.3 74 28 3.9 39.1
14:30 1014 29.94 844 24.92 23.3 73.9 29 4.7 40.4
14:35 1014 29.94 843 24.89 22 71.7 29 3.4 38
14:40 1014 29.94 843 24.89 22.8 73.1 29 3.9 39
14:45 1014 29.94 843 24.89 23.8 74.8 27 3.7 38.7
14:50 1014 29.94 843 24.89 24 75.2 27 3.9 39
14:55 1014 29.94 843 24.89 23.6 74.4 28 4.2 39.6
15:00 1014 29.94 843 24.89 23.3 73.9 28 3.7 38.7
15:05 1014 29.94 843 24.89 23.5 74.3 27 3.5 38.3
15:10 1014 29.94 843 24.89 23.8 74.8 30 5.6 42.1
15:15 1014 29.94 843 24.89 22.9 73.2 29 4 39.1
15:20 1014 29.94 843 24.89 22.7 72.9 28 3.4 38.2
15:25 1014 29.94 843 24.89 22.7 72.9 28 3.5 38.4
15:30 1014 29.94 843 24.89 22.7 72.9 32 5.5 42
15:35 1014 29.94 843 24.89 22.5 72.4 34 5.9 42.6
15:40 1014 29.94 843 24.89 23.2 73.8 29 4.3 39.7
15:45 1014 29.94 843 24.89 23.7 74.6 28 4.4 39.9
15:50 1013 29.91 843 24.89 22.8 73.1 28 3.8 38.8
15:55 1013 29.91 843 24.89 22.7 72.8 28 3.5 38.2
16:00 1013 29.91 843 24.89 23.3 74 30 4.9 40.7
16:05 1013 29.91 843 24.89 23.7 74.7 27 4 39.1
16:10 1013 29.91 843 24.89 23.4 74.1 30 5 40.9
16:15 1013 29.91 843 24.89 22.4 72.3 38 7.5 45.5
16:20 1013 29.91 842 24.86 22.6 72.7 36 6.9 44.4
16:25 1013 29.91 842 24.86 22.2 72 35 6.4 43.4
16:30 1013 29.91 842 24.86 21.9 71.5 31 4.3 39.7
16:35 1013 29.91 842 24.86 21.5 70.7 32 4.1 39.4
16:40 1013 29.91 843 24.89 21.9 71.4 31 4.4 39.9
16:45 1013 29.91 843 24.89 21.4 70.5 41 7.6 45.7
16:50 1013 29.91 843 24.89 20.8 69.4 45 8.6 47.5
16:55 1013 29.91 843 24.89 20.4 68.8 43 7.5 45.5
17:00 1013 29.91 842 24.86 20.4 68.7 41 6.9 44.5
17:05 1013 29.91 842 24.86 20.4 68.7 44 8 46.5
17:10 1013 29.91 842 24.86 19.7 67.5 46 7.9 46.2
17:15 1013 29.91 843 24.89 19.6 67.3 47 8 46.4
17:20 1013 29.91 843 24.89 19.8 67.6 47 8.3 46.9
17:25 1013 29.91 843 24.89 19.8 67.6 49 9 48.2
17:30 1013 29.91 842 24.86 19.8 67.7 48 8.5 47.3
17:35 1013 29.91 843 24.89 19.8 67.6 47 8.3 47
17:40 1013 29.91 843 24.89 19.4 66.9 55 10.1 50.2
17:45 1013 29.91 843 24.89 19.2 66.6 50 8.7 47.6
17:50 1014 29.94 843 24.89 18.8 65.9 53 9.1 48.4
17:55 1014 29.94 843 24.89 18.9 66 49 8.1 46.6
18:00 1013 29.91 843 24.89 19.7 67.4 50 9.2 48.6
18:05 1013 29.91 842 24.86 20 68 48 8.9 47.9
18:10 1013 29.91 842 24.86 19.9 67.9 48 8.6 47.5
18:15 1013 29.91 842 24.86 19.8 67.7 51 9.6 49.2
18:20 1013 29.91 842 24.86 19.4 67 57 10.8 51.4
18:25 1013 29.91 842 24.86 18.9 65.9 62 11.5 52.6
18:30 1013 29.91 843 24.89 18.7 65.6 56 9.8 49.7
18:35 1013 29.91 843 24.89 18.7 65.6 52 8.7 47.6
18:40 1013 29.91 843 24.89 18.3 64.9 55 9.2 48.5
18:45 1013 29.91 842 24.86 18.3 65 54 8.9 48
18:50 1013 29.91 842 24.86 18.4 65.1 56 9.6 49.3
18:55 1013 29.91 842 24.86 18.1 64.6 58 9.7 49.5
19:00 1013 29.91 843 24.89 18.4 65 54 9.1 48.4
19:05 1013 29.91 843 24.89 18.7 65.6 54 9.4 48.9
19:10 1014 29.94 843 24.89 18.7 65.6 56 9.9 49.9
19:15 1014 29.94 843 24.89 18.7 65.7 53 9.1 48.4
19:20 1014 29.94 843 24.89 19.5 67.1 53 9.7 49.5
19:25 1014 29.94 843 24.89 19.8 67.7 37 5.1 41.1
19:30 1014 29.94 843 24.89 20.1 68.2 35 4.2 39.6
19:35 1014 29.94 843 24.89 20.1 68.2 33 3.6 38.6
19:40 1014 29.94 843 24.89 19.9 67.7 33 3.5 38.3
19:45 1014 29.94 843 24.89 19.4 66.9 35 3.6 38.4
19:50 1014 29.94 843 24.89 19 66.2 35 3.2 37.8
19:55 1014 29.94 844 24.92 18.8 65.8 35 3.1 37.6
20:00 1015 29.97 844 24.92 18.5 65.2 35 2.7 36.9
20:05 1014 29.94 844 24.92 18.1 64.7 35 2.5 36.4
20:10 1015 29.97 844 24.92 17.9 64.3 35 2.3 36.1
20:15 1015 29.97 844 24.92 17.8 64 34 2 35.5
20:20 1015 29.97 844 24.92 17.6 63.7 34 1.7 35
20:25 1015 29.97 844 24.92 17.5 63.5 34 1.5 34.7
20:30 1015 29.97 844 24.92 17.5 63.4 33 1.3 34.3
20:35 1015 29.97 844 24.92 17.3 63.1 34 1.4 34.6
20:40 1015 29.97 844 24.92 17.1 62.9 34 1.2 34.2
20:45 1015 29.97 844 24.92 17 62.6 35 1.5 34.7
20:50 1015 29.97 845 24.95 16.9 62.5 34 1.2 34.2
20:55 1015 29.97 845 24.95 16.9 62.4 34 1.2 34.2
21:00 1016 30 845 24.95 16.7 62 37 2.1 35.7
21:05 1016 30 845 24.95 16.3 61.3 39 2.3 36.1
21:10 1016 30 845 24.95 15.9 60.6 43 3.5 38.3
21:15 1016 30 845 24.95 15.5 59.8 43 2.9 37.3
21:20 1016 30 845 24.95 15.5 59.8 40 2.2 35.9
21:25 1016 30 845 24.95 15.5 59.8 40 1.9 35.4
21:30 1016 30 845 24.95 15.3 59.5 40 2 35.6
21:35 1016 30 845 24.95 15 59.1 41 1.9 35.4
21:40 1016 30 846 24.98 14.8 58.7 41 1.8 35.2
21:45 1016 30 846 24.98 14.9 58.7 39 1.3 34.3
21:50 1017 30.03 846 24.98 14.8 58.7 40 1.4 34.5
21:55 1017 30.03 846 24.98 14.6 58.3 41 1.7 35
22:00 1017 30.03 846 24.98 14.5 58.1 42 1.8 35.3
22:05 1017 30.03 846 24.98 14.5 58 40 1.2 34.1
22:10 1017 30.03 846 24.98 14.4 57.9 41 1.3 34.4
22:15 1017 30.03 846 24.98 14.3 57.7 40 0.9 33.7
22:20 1017 30.03 846 24.98 14.2 57.5 41 1.3 34.4
22:25 1017 30.03 846 24.98 14.1 57.3 40 0.9 33.6
22:30 1017 30.03 846 24.98 13.9 57 41 1 33.8
22:35 1017 30.03 846 24.98 13.8 56.8 41 0.9 33.6
22:40 1017 30.03 846 24.98 13.7 56.7 41 0.8 33.5
22:45 1017 30.03 846 24.98 13.6 56.5 41 0.8 33.5
22:50 1017 30.03 846 24.98 13.6 56.4 42 0.8 33.5
22:55 1017 30.03 846 24.98 13.6 56.4 41 0.7 33.2
23:00 1017 30.03 846 24.98 13.5 56.2 41 0.5 32.8
23:05 1017 30.03 846 24.98 13.4 56.2 41 0.4 32.8
23:10 1017 30.03 846 24.98 13.4 56.1 41 0.6 33.1
23:15 1017 30.03 846 24.98 13.3 56 41 0.5 33
23:20 1017 30.03 846 24.98 13.3 55.9 42 0.6 33
23:25 1017 30.03 846 24.98 13.2 55.8 41 0.4 32.7
23:30 1017 30.03 846 24.98 13.2 55.8 42 0.6 33.1
23:35 1017 30.03 846 24.98 13.1 55.5 42 0.5 32.9
23:40 1017 30.03 847 25.01 13 55.4 42 0.4 32.8
23:45 1017 30.03 847 25.01 13 55.4 41 0.2 32.4
23:50 1017 30.03 847 25.01 13 55.4 40 -0.2 31.6
23:55 1017 30.03 847 25.01 13 55.3 40 -0.2 31.7
24:00 1018 30.06 847 25.01 12.9 55.3 40 -0.4 31.2